Time;durP1;ratioP1;P1;durP2;ratioP2;P2;SDS_P1;SDS_P2;PMS_P1;PMS_P2;Temp;Humidity;BMP_temperature;BMP_pressure;BME280_temperature;BME280_humidity;BME280_pressure;Samples;Min_cycle;Max_cycle;Signal;HPM_P1;HPM_P2
2022/06/14 00:00:53;;;;;;;0.20;0.20;;;;;;;14.98;82.20;101475.56;5020892;28;20484;-62
2022/06/14 00:02:26;;;;;;;0.30;0.30;;;;;;;15.02;81.88;101465.53;5035338;28;20041;-60
2022/06/14 00:04:52;;;;;;;2.05;0.60;;;;;;;15.01;81.90;101469.38;5026953;28;20476;-62
2022/06/14 00:07:17;;;;;;;3.33;0.40;;;;;;;14.82;82.08;101472.97;5027054;28;20064;-61
2022/06/14 00:09:44;;;;;;;5.75;0.40;;;;;;;14.72;82.45;101467.38;5028324;28;20040;-60
2022/06/14 00:12:11;;;;;;;0.45;0.22;;;;;;;14.66;83.09;101460.69;5018908;28;20117;-60
2022/06/14 00:14:36;;;;;;;1.20;0.40;;;;;;;14.69;82.46;101457.25;5027535;28;20112;-59
2022/06/14 00:17:02;;;;;;;1.10;0.60;;;;;;;14.55;82.83;101473.28;5021396;28;20543;-62
2022/06/14 00:19:27;;;;;;;0.75;0.28;;;;;;;14.42;83.90;101459.09;5021966;28;20068;-62
2022/06/14 00:21:53;;;;;;;1.17;0.40;;;;;;;14.22;85.13;101454.84;5027522;28;20111;-62
2022/06/14 00:24:18;;;;;;;0.47;0.47;;;;;;;14.26;85.06;101461.13;5019621;28;20069;-62
2022/06/14 00:26:44;;;;;;;1.85;0.63;;;;;;;14.20;85.32;101467.97;5025407;28;20033;-62
2022/06/14 00:29:09;;;;;;;0.57;0.32;;;;;;;14.20;85.55;101465.25;5041596;28;20041;-61
2022/06/14 00:31:35;;;;;;;0.40;0.40;;;;;;;14.24;85.84;101468.81;5035908;28;20462;-62
2022/06/14 00:34:00;;;;;;;2.92;0.43;;;;;;;14.11;85.89;101459.28;5028899;28;20514;-62
2022/06/14 00:36:32;;;;;;;2.88;0.43;;;;;;;14.15;85.79;101471.75;5036598;28;20112;-62
2022/06/14 00:39:03;;;;;;;1.15;1.02;;;;;;;14.13;86.79;101470.56;5025791;28;20029;-60
2022/06/14 00:41:44;;;;;;;3.28;0.57;;;;;;;14.22;86.33;101474.59;5031216;28;20028;-61
2022/06/14 00:44:24;;;;;;;0.30;0.30;;;;;;;14.32;85.98;101474.03;5027221;28;20071;-62
2022/06/14 00:47:05;;;;;;;0.50;0.35;;;;;;;14.42;85.25;101481.56;5022914;28;20033;-61
2022/06/14 00:49:39;;;;;;;0.45;0.40;;;;;;;14.45;85.07;101478.16;5021210;28;20041;-60
2022/06/14 00:52:16;;;;;;;1.77;0.50;;;;;;;14.52;84.58;101474.78;5027412;28;20037;-61
2022/06/14 00:54:45;;;;;;;0.50;0.50;;;;;;;14.50;84.83;101474.34;5020969;28;20635;-62
2022/06/14 00:57:20;;;;;;;0.80;0.70;;;;;;;14.45;85.00;101470.03;5039261;28;20064;-59
2022/06/14 00:59:53;;;;;;;1.40;0.40;;;;;;;14.41;84.93;101463.75;5031715;28;20069;-61
2022/06/14 01:02:30;;;;;;;0.38;0.38;;;;;;;14.27;85.52;101460.78;5027458;28;20105;-61
2022/06/14 01:05:00;;;;;;;2.78;1.15;;;;;;;14.22;85.50;101461.06;5027886;28;20052;-59
2022/06/14 01:07:35;;;;;;;0.50;0.50;;;;;;;13.96;86.39;101455.50;5030767;28;20024;-61
2022/06/14 01:10:12;;;;;;;5.05;0.50;;;;;;;14.15;85.77;101447.38;5019643;28;20132;-62
2022/06/14 01:12:43;;;;;;;1.75;0.30;;;;;;;14.09;86.52;101450.75;5033298;28;20120;-62
2022/06/14 01:15:18;;;;;;;0.53;0.53;;;;;;;14.12;86.54;101458.94;5040490;28;20033;-59
2022/06/14 01:17:50;;;;;;;0.20;0.20;;;;;;;14.25;86.21;101454.91;5033880;28;20041;-62
2022/06/14 01:20:18;;;;;;;3.63;1.17;;;;;;;14.30;86.17;101460.06;5029937;28;20025;-61
2022/06/14 01:22:45;;;;;;;2.55;0.57;;;;;;;14.37;85.62;101467.53;5030235;28;20440;-62
2022/06/14 01:25:11;;;;;;;0.90;0.63;;;;;;;14.38;85.56;101464.47;5026496;28;20061;-61
2022/06/14 01:27:39;;;;;;;0.50;0.50;;;;;;;14.48;85.21;101453.03;5029033;28;20488;-61
2022/06/14 01:30:42;;;;;;;1.33;0.55;;;;;;;14.55;84.40;101452.38;5039123;28;20036;-59
2022/06/14 01:33:39;;;;;;;0.50;0.50;;;;;;;14.43;84.82;101456.06;5008696;28;20053;-62
2022/06/14 01:36:14;;;;;;;0.95;0.25;;;;;;;14.50;84.35;101449.94;5023198;28;20045;-62
2022/06/14 01:38:41;;;;;;;3.47;0.40;;;;;;;14.54;84.10;101450.78;5030344;28;20632;-62
2022/06/14 01:41:28;;;;;;;0.38;0.38;;;;;;;14.64;83.41;101454.84;5029783;28;20500;-61
2022/06/14 01:44:12;;;;;;;0.98;0.47;;;;;;;14.60;83.50;101464.84;5025177;28;20033;-61
2022/06/14 01:46:55;;;;;;;0.80;0.77;;;;;;;14.59;83.56;101458.66;5038165;28;20469;-61
2022/06/14 01:52:45;;;;;;;2.10;0.80;;;;;;;14.61;83.01;101461.00;5033412;28;20068;-62
2022/06/14 01:55:45;;;;;;;3.47;0.85;;;;;;;14.66;82.52;101458.75;5027204;28;20488;-61
2022/06/14 01:58:25;;;;;;;0.98;0.50;;;;;;;14.53;83.26;101453.88;5028869;28;20041;-62
2022/06/14 02:01:15;;;;;;;0.98;0.60;;;;;;;14.56;83.24;101453.13;5039555;28;20045;-60
2022/06/14 02:07:15;;;;;;;0.32;0.32;;;;;;;14.53;83.55;101456.59;5026723;28;20107;-61
2022/06/14 02:10:02;;;;;;;1.30;0.75;;;;;;;14.54;83.63;101460.88;5030647;28;20112;-61
2022/06/14 02:12:55;;;;;;;0.45;0.45;;;;;;;14.45;84.11;101463.81;5019859;28;20030;-60
2022/06/14 02:16:03;;;;;;;2.20;0.43;;;;;;;14.48;84.04;101457.66;5033474;28;20049;-60
2022/06/14 02:18:47;;;;;;;2.90;0.32;;;;;;;14.36;85.09;101455.91;5020568;28;20033;-62
2022/06/14 02:21:31;;;;;;;0.73;0.50;;;;;;;14.39;85.11;101460.63;5025522;28;20029;-62
2022/06/14 02:24:07;;;;;;;0.32;0.32;;;;;;;14.45;84.92;101461.09;5025958;28;20064;-60
2022/06/14 02:26:37;;;;;;;0.60;0.38;;;;;;;14.41;85.19;101455.63;5028558;28;20064;-61
2022/06/14 02:29:14;;;;;;;0.60;0.40;;;;;;;14.35;85.29;101454.34;5026611;28;20036;-61
2022/06/14 02:31:46;;;;;;;3.83;0.40;;;;;;;14.32;85.47;101457.75;5031976;28;20032;-64
2022/06/14 02:34:17;;;;;;;0.60;0.60;;;;;;;14.33;85.47;101461.28;5049190;28;20033;-62
2022/06/14 02:36:43;;;;;;;;;;;;;;;14.25;85.95;101454.91;5024354;28;20048;-60
2022/06/14 02:39:14;;;;;;;2.75;0.50;;;;;;;14.24;85.99;101463.41;5029660;28;19913;-62
2022/06/14 02:42:04;;;;;;;0.63;0.50;;;;;;;14.15;85.88;101463.63;5033282;28;20029;-62
2022/06/14 02:44:36;;;;;;;1.60;1.00;;;;;;;14.08;86.60;101460.00;5023444;28;20056;-62
2022/06/14 02:47:14;;;;;;;1.70;0.32;;;;;;;14.02;86.68;101467.63;5021092;28;20702;-61
2022/06/14 02:49:46;;;;;;;3.97;0.60;;;;;;;14.03;86.90;101460.28;5026557;28;20035;-61
2022/06/14 02:52:11;;;;;;;;;;;;;;;13.97;86.65;101467.94;5025243;28;20052;-61
2022/06/14 02:54:47;;;;;;;0.30;0.30;;;;;;;13.80;86.99;101454.03;5021922;28;20359;-62
2022/06/14 02:57:49;;;;;;;0.73;0.73;;;;;;;13.64;87.42;101464.94;5029336;28;20041;-62
2022/06/14 03:00:20;;;;;;;0.30;0.30;;;;;;;13.68;87.77;101463.06;5027803;28;20488;-61
2022/06/14 03:03:06;;;;;;;2.30;0.40;;;;;;;13.65;87.49;101466.47;5027165;28;20037;-61
2022/06/14 03:05:54;;;;;;;0.32;0.32;;;;;;;13.56;87.73;101465.91;5022717;28;20045;-60
2022/06/14 03:08:26;;;;;;;2.08;0.45;;;;;;;13.44;88.15;101464.13;5027588;28;20086;-60
2022/06/14 03:11:10;;;;;;;1.20;0.55;;;;;;;13.48;88.86;101475.81;5028483;28;20045;-60
2022/06/14 03:13:47;;;;;;;2.92;0.75;;;;;;;13.56;89.30;101477.53;5025431;28;20459;-60
2022/06/14 03:16:35;;;;;;;7.20;0.57;;;;;;;13.63;89.08;101481.53;5025681;28;20080;-62
2022/06/14 03:19:24;;;;;;;0.40;0.40;;;;;;;13.70;89.04;101487.88;5028094;28;20357;-61
2022/06/14 03:22:01;;;;;;;0.40;0.40;;;;;;;13.82;88.84;101479.59;5029963;28;20117;-60
2022/06/14 03:24:39;;;;;;;0.45;0.40;;;;;;;13.82;88.81;101481.53;5020829;28;20113;-62
2022/06/14 03:27:04;;;;;;;0.85;0.47;;;;;;;13.67;89.09;101487.78;5043104;28;20033;-61
2022/06/14 03:29:56;;;;;;;0.90;0.63;;;;;;;13.73;89.46;101484.44;5029913;28;20511;-62
2022/06/14 03:32:34;;;;;;;0.40;0.40;;;;;;;13.77;88.96;101470.97;5028249;28;20053;-61
2022/06/14 03:35:12;;;;;;;0.88;0.40;;;;;;;13.91;88.85;101474.78;5023263;28;20039;-61
2022/06/14 03:37:37;;;;;;;0.35;0.35;;;;;;;13.86;89.70;101474.28;5023596;28;20405;-62
2022/06/14 03:40:12;;;;;;;1.00;0.60;;;;;;;13.97;89.41;101469.84;5025586;28;20044;-60
2022/06/14 03:42:38;;;;;;;1.35;0.50;;;;;;;14.04;89.38;101469.97;5033053;28;20036;-62
2022/06/14 03:45:07;;;;;;;2.28;0.63;;;;;;;14.15;88.79;101470.97;5028721;28;20112;-63
2022/06/14 03:47:33;;;;;;;2.00;1.55;;;;;;;14.20;88.67;101467.97;5023998;28;20068;-62
2022/06/14 03:50:25;;;;;;;2.53;0.80;;;;;;;14.31;87.96;101468.97;5029504;28;20049;-62
2022/06/14 03:53:04;;;;;;;1.70;0.60;;;;;;;14.35;87.81;101458.97;5019246;28;20060;-62
2022/06/14 03:55:30;;;;;;;0.70;0.65;;;;;;;14.41;87.70;101468.38;5016282;28;20088;-63
2022/06/14 03:58:20;;;;;;;3.63;0.50;;;;;;;14.44;87.70;101468.44;5029723;28;20106;-62
2022/06/14 04:00:51;;;;;;;0.37;0.37;;;;;;;14.48;87.27;101473.16;5030612;28;20423;-65
2022/06/14 04:03:36;;;;;;;0.60;0.50;;;;;;;14.55;86.60;101476.00;5025063;28;20411;-63
2022/06/14 04:06:13;;;;;;;1.05;0.60;;;;;;;14.66;85.68;101476.94;5025995;28;20513;-63
2022/06/14 04:08:56;;;;;;;0.77;0.40;;;;;;;14.74;84.38;101476.72;5023235;28;20033;-60
2022/06/14 04:11:33;;;;;;;1.17;0.70;;;;;;;14.78;84.48;101476.78;5025158;28;20033;-62
2022/06/14 04:14:17;;;;;;;0.68;0.50;;;;;;;14.80;83.74;101469.06;5024037;28;20033;-67
2022/06/14 04:16:58;;;;;;;0.50;0.35;;;;;;;14.84;83.91;101470.69;5028278;28;20072;-60
2022/06/14 04:19:36;;;;;;;0.40;0.40;;;;;;;14.90;83.50;101469.25;5027786;28;20033;-60
2022/06/14 04:22:17;;;;;;;0.32;0.32;;;;;;;15.06;82.97;101482.66;5013777;28;20325;-62
2022/06/14 04:24:55;;;;;;;0.55;0.45;;;;;;;15.12;82.66;101483.88;5026108;28;20169;-62
2022/06/14 04:27:37;;;;;;;0.77;0.55;;;;;;;15.13;82.44;101472.69;5033778;28;20107;-60
2022/06/14 04:30:12;;;;;;;1.95;1.23;;;;;;;15.13;82.05;101466.47;5035362;28;20033;-61
2022/06/14 04:32:46;;;;;;;1.48;0.40;;;;;;;15.18;81.34;101472.38;5018937;28;20129;-62
2022/06/14 04:35:28;;;;;;;2.10;0.60;;;;;;;15.07;82.59;101474.16;5025060;28;20037;-62
2022/06/14 04:37:58;;;;;;;2.90;0.60;;;;;;;14.97;83.74;101472.06;5032335;28;20037;-62
2022/06/14 04:40:35;;;;;;;1.75;0.60;;;;;;;14.97;83.08;101473.97;5019625;28;20481;-62
2022/06/14 04:43:06;;;;;;;1.92;1.05;;;;;;;15.07;83.05;101482.28;5031457;28;20045;-62
2022/06/14 04:45:41;;;;;;;;;;;;;;;14.95;83.70;101481.69;5029961;28;20499;-62
2022/06/14 04:48:16;;;;;;;0.40;0.40;;;;;;;14.98;84.58;101476.31;5029245;28;19913;-62
2022/06/14 04:50:51;;;;;;;0.77;0.40;;;;;;;15.02;84.68;101474.44;5031240;28;20030;-62
2022/06/14 04:53:23;;;;;;;2.63;0.50;;;;;;;15.15;84.28;101475.81;5029002;28;20396;-62
2022/06/14 04:56:01;;;;;;;2.10;0.63;;;;;;;15.19;84.89;101459.59;5030558;28;20042;-62
2022/06/14 04:58:32;;;;;;;0.50;0.50;;;;;;;15.33;83.75;101467.91;5032430;28;20086;-61
2022/06/14 05:01:02;;;;;;;0.37;0.37;;;;;;;15.42;83.18;101473.91;5029267;28;20033;-60
2022/06/14 05:03:37;;;;;;;1.13;1.00;;;;;;;15.65;81.66;101474.63;5032149;28;20149;-61
2022/06/14 05:06:11;;;;;;;0.70;0.43;;;;;;;15.74;81.96;101477.81;5028829;28;20029;-61
2022/06/14 05:08:45;;;;;;;0.73;0.30;;;;;;;15.95;80.58;101478.06;5020951;28;20030;-61
2022/06/14 05:11:38;;;;;;;0.90;0.70;;;;;;;16.14;80.41;101482.59;5029614;28;20088;-62
2022/06/14 05:14:17;;;;;;;0.98;0.50;;;;;;;16.41;80.66;101480.53;5028080;28;20029;-61
2022/06/14 05:16:48;;;;;;;0.40;0.30;;;;;;;16.76;78.86;101484.38;5025390;28;20025;-63
2022/06/14 05:19:34;;;;;;;1.02;0.70;;;;;;;16.95;77.30;101484.16;5014538;28;20036;-60
2022/06/14 05:22:30;;;;;;;0.45;0.30;;;;;;;16.98;76.25;101485.31;5022381;28;20159;-62
2022/06/14 05:24:57;;;;;;;1.50;0.50;;;;;;;16.91;76.64;101494.25;5023810;28;20033;-61
2022/06/14 05:27:41;;;;;;;0.40;0.40;;;;;;;16.82;77.00;101484.84;5030029;28;20075;-62
2022/06/14 05:30:57;;;;;;;0.57;0.40;;;;;;;16.78;77.62;101482.06;5028853;28;20041;-62
2022/06/14 05:33:25;;;;;;;0.93;0.50;;;;;;;16.78;78.17;101492.19;5008826;28;20049;-58
2022/06/14 05:36:00;;;;;;;0.77;0.45;;;;;;;17.00;78.23;101488.47;5027884;28;20045;-61
2022/06/14 05:38:52;;;;;;;1.77;0.60;;;;;;;17.38;76.42;101496.09;5029123;28;20061;-62
2022/06/14 05:41:20;;;;;;;1.05;0.73;;;;;;;17.58;75.75;101499.38;5026769;28;20030;-61
2022/06/14 05:44:07;;;;;;;2.50;0.45;;;;;;;17.68;73.88;101504.88;5031252;28;20029;-62
2022/06/14 05:46:44;;;;;;;2.28;0.50;;;;;;;17.74;73.25;101508.03;5025426;28;20507;-61
2022/06/14 05:49:23;;;;;;;1.75;0.40;;;;;;;17.63;74.60;101512.63;5027188;28;20095;-60
2022/06/14 05:51:54;;;;;;;0.40;0.30;;;;;;;17.57;73.29;101504.06;5024421;28;20511;-60
2022/06/14 05:54:32;;;;;;;1.40;0.65;;;;;;;17.37;74.60;101508.16;5027128;28;20036;-62
2022/06/14 05:57:22;;;;;;;0.32;0.32;;;;;;;17.29;75.39;101506.56;5030103;28;20025;-62
2022/06/14 05:59:57;;;;;;;1.63;0.55;;;;;;;17.19;76.38;101509.97;5025984;28;20030;-61
2022/06/14 06:02:32;;;;;;;1.30;0.40;;;;;;;17.11;77.05;101513.84;5028806;28;20034;-62
2022/06/14 06:05:05;;;;;;;1.85;0.50;;;;;;;17.02;77.84;101518.81;5027198;28;20673;-62
2022/06/14 06:07:42;;;;;;;1.08;0.55;;;;;;;17.10;76.84;101525.88;5028674;28;20041;-62
2022/06/14 06:10:23;;;;;;;2.78;0.40;;;;;;;17.11;76.49;101522.00;5032481;28;20065;-59
2022/06/14 06:12:58;;;;;;;0.47;0.40;;;;;;;17.03;75.92;101525.81;5029758;28;20045;-61
2022/06/14 06:15:32;;;;;;;3.33;0.57;;;;;;;16.87;77.24;101525.28;5031013;28;20536;-59
2022/06/14 06:18:06;;;;;;;0.50;0.22;;;;;;;16.78;78.24;101522.88;5039191;28;20044;-62
2022/06/14 06:20:40;;;;;;;0.50;0.38;;;;;;;16.77;78.43;101529.47;5030236;28;20540;-62
2022/06/14 06:23:40;;;;;;;0.70;0.50;;;;;;;16.90;77.95;101522.59;5045363;28;20076;-61
2022/06/14 06:26:09;;;;;;;3.47;1.73;;;;;;;16.82;78.11;101526.41;5024117;28;20045;-59
2022/06/14 06:28:42;;;;;;;0.30;0.30;;;;;;;16.82;77.66;101522.91;5039897;28;20098;-59
2022/06/14 06:31:17;;;;;;;2.53;0.52;;;;;;;16.90;77.16;101529.97;5037520;28;20041;-62
2022/06/14 06:33:49;;;;;;;0.40;0.40;;;;;;;16.87;77.31;101533.44;5027929;28;20071;-61
2022/06/14 06:36:24;;;;;;;0.28;0.25;;;;;;;16.86;77.90;101534.63;5028530;28;20037;-61
2022/06/14 06:39:08;;;;;;;0.40;0.30;;;;;;;16.88;77.86;101535.78;5034220;28;20635;-62
2022/06/14 06:41:51;;;;;;;4.75;0.77;;;;;;;17.00;49.39;101540.16;5033931;28;20022;-62
2022/06/14 06:44:27;;;;;;;3.03;0.50;;;;;;;16.93;77.55;101542.84;5034734;28;20381;-63
2022/06/14 06:47:15;;;;;;;1.40;0.45;;;;;;;16.94;76.98;101542.47;5031709;28;20037;-62
2022/06/14 06:49:59;;;;;;;0.85;0.35;;;;;;;16.95;77.00;101544.03;5028946;28;20121;-61
2022/06/14 06:52:36;;;;;;;0.98;0.20;;;;;;;16.92;77.25;101549.41;5030696;28;20113;-62
2022/06/14 06:55:10;;;;;;;0.70;0.40;;;;;;;16.97;78.06;101540.94;5024265;28;20029;-62
2022/06/14 06:57:39;;;;;;;0.80;0.50;;;;;;;17.12;77.40;101548.84;5028717;28;20118;-62
2022/06/14 07:00:06;;;;;;;2.08;0.43;;;;;;;17.26;77.23;101548.16;5032222;28;20029;-62
2022/06/14 07:02:47;;;;;;;1.23;0.60;;;;;;;17.51;76.50;101543.72;5025187;28;20030;-59
2022/06/14 07:05:14;;;;;;;1.45;0.52;;;;;;;17.70;76.07;101545.38;5031059;28;20025;-62
2022/06/14 07:08:02;;;;;;;5.45;0.43;;;;;;;18.00;74.97;101538.50;5029218;28;20116;-62
2022/06/14 07:10:39;;;;;;;0.85;0.47;;;;;;;18.33;72.54;101539.44;5028114;28;20420;-61
2022/06/14 07:13:29;;;;;;;0.35;0.28;;;;;;;18.67;71.54;101537.97;5022743;28;20040;-62
2022/06/14 07:16:10;;;;;;;1.45;1.17;;;;;;;18.86;69.51;101545.78;5027561;28;20064;-60
2022/06/14 07:18:50;;;;;;;0.47;0.30;;;;;;;18.97;68.67;101540.34;5027269;28;20068;-59
2022/06/14 07:21:22;;;;;;;2.45;0.38;;;;;;;19.07;67.94;101537.59;5039451;28;20041;-62
2022/06/14 07:23:55;;;;;;;0.93;0.30;;;;;;;18.92;67.96;101536.03;5028934;28;20041;-62
2022/06/14 07:26:31;;;;;;;0.50;0.30;;;;;;;18.78;67.74;101545.00;5043841;28;20037;-60
2022/06/14 07:29:14;;;;;;;1.92;0.40;;;;;;;18.59;67.76;101541.84;5027342;28;20057;-60
2022/06/14 07:32:01;;;;;;;1.75;0.30;;;;;;;18.50;69.50;101550.41;5028475;28;20433;-61
2022/06/14 07:34:28;;;;;;;0.25;0.25;;;;;;;18.42;69.75;101546.09;5021311;28;20029;-58
2022/06/14 07:37:02;;;;;;;0.47;0.43;;;;;;;18.53;70.22;101544.19;5026467;28;20481;-58
2022/06/14 07:39:40;;;;;;;0.17;0.17;;;;;;;18.52;70.69;101550.81;5032552;28;20029;-61
2022/06/14 07:42:20;;;;;;;0.50;0.38;;;;;;;18.58;69.53;101545.75;5041267;28;20049;-61
2022/06/14 07:45:04;;;;;;;2.95;0.50;;;;;;;18.87;69.61;101548.13;5027549;28;20384;-59
2022/06/14 07:47:47;;;;;;;1.05;0.40;;;;;;;19.15;66.81;101544.63;5040538;28;20288;-61
2022/06/14 07:50:22;;;;;;;0.90;0.85;;;;;;;19.09;64.69;101548.13;5027976;28;20034;-61
2022/06/14 07:52:52;;;;;;;1.30;0.30;;;;;;;19.21;65.02;101553.19;5022090;28;20041;-61
2022/06/14 07:55:32;;;;;;;0.57;0.40;;;;;;;19.21;63.76;101559.44;5023448;28;20030;-62
2022/06/14 07:58:05;;;;;;;0.20;0.20;;;;;;;19.17;66.21;101553.22;5037531;28;20041;-61
2022/06/14 08:03:49;;;;;;;0.80;0.40;;;;;;;19.15;66.82;101561.00;5032350;28;20453;-62
2022/06/14 08:06:20;;;;;;;1.25;0.50;;;;;;;19.17;65.25;101563.34;5022402;28;21349;-62
2022/06/14 08:08:51;;;;;;;0.93;0.30;;;;;;;19.04;64.05;101560.25;5020851;28;20073;-62
2022/06/14 08:11:22;;;;;;;0.35;0.20;;;;;;;18.94;65.94;101558.28;5028384;28;20128;-62
2022/06/14 08:13:55;;;;;;;;;;;;;;;18.90;66.49;101558.28;5026923;28;20033;-62
2022/06/14 08:16:22;;;;;;;1.83;0.75;;;;;;;18.96;67.12;101558.66;5028582;28;19917;-61
2022/06/14 08:18:58;;;;;;;0.90;0.40;;;;;;;19.33;67.16;101561.03;5034981;28;20045;-61
2022/06/14 08:21:44;;;;;;;1.20;0.22;;;;;;;19.57;64.94;101566.47;5023759;28;20033;-61
2022/06/14 08:24:18;;;;;;;0.20;0.20;;;;;;;19.66;64.85;101561.38;5030771;28;20052;-62
2022/06/14 08:27:01;;;;;;;0.40;0.20;;;;;;;19.78;62.37;101563.69;5031643;28;20092;-61
2022/06/14 08:29:47;;;;;;;0.28;0.20;;;;;;;19.83;62.75;101561.72;5030248;28;20125;-62
2022/06/14 08:32:19;;;;;;;3.10;0.35;;;;;;;19.86;62.35;101558.22;5020721;28;20048;-62
2022/06/14 08:34:53;;;;;;;1.40;0.50;;;;;;;19.80;60.99;101558.59;5034144;28;20111;-62
2022/06/14 08:37:39;;;;;;;0.20;0.20;;;;;;;19.78;60.11;101555.47;5021184;28;20048;-62
2022/06/14 08:40:42;;;;;;;0.35;0.30;;;;;;;19.60;59.72;101562.97;5029796;28;20554;-62
2022/06/14 08:43:10;;;;;;;1.58;0.38;;;;;;;19.46;60.68;101556.72;5027207;28;20026;-62
2022/06/14 08:45:53;;;;;;;0.30;0.20;;;;;;;19.43;59.93;101562.97;5025862;28;20017;-62
2022/06/14 08:48:42;;;;;;;0.47;0.30;;;;;;;19.23;59.79;101564.53;5021911;28;20443;-62
2022/06/14 08:51:10;;;;;;;0.20;0.20;;;;;;;19.08;60.91;101560.22;5041753;28;20044;-60
2022/06/14 08:53:57;;;;;;;0.52;0.20;;;;;;;19.08;58.66;101558.28;5041663;28;20276;-62
2022/06/14 08:57:00;;;;;;;0.20;0.20;;;;;;;18.98;59.65;101556.34;5024542;28;20075;-59
2022/06/14 08:59:28;;;;;;;0.17;0.17;;;;;;;19.01;59.53;101552.81;5016946;28;20029;-61
2022/06/14 09:02:20;;;;;;;0.47;0.25;;;;;;;19.07;60.34;101561.38;5026601;28;20038;-59
2022/06/14 09:05:11;;;;;;;1.52;0.32;;;;;;;19.20;59.88;101555.16;5027469;28;20044;-61
2022/06/14 09:08:03;;;;;;;0.47;0.28;;;;;;;19.48;59.90;101563.38;5031757;28;20033;-60
2022/06/14 09:10:59;;;;;;;2.53;0.50;;;;;;;19.84;58.55;101555.09;5021238;28;20044;-62
2022/06/14 09:13:46;;;;;;;1.27;0.30;;;;;;;19.96;57.82;101549.94;5024869;28;20030;-60
2022/06/14 09:16:34;;;;;;;0.15;0.10;;;;;;;20.01;58.46;101555.03;5030887;28;20033;-59
2022/06/14 09:19:02;;;;;;;2.17;0.45;;;;;;;20.06;57.61;101560.06;5031559;28;20132;-62
2022/06/14 09:21:33;;;;;;;0.25;0.20;;;;;;;19.94;58.40;101549.56;5026724;28;20053;-61
2022/06/14 09:24:40;;;;;;;1.02;0.30;;;;;;;19.86;56.92;101552.75;5029637;28;20038;-62
2022/06/14 09:27:24;;;;;;;0.32;0.32;;;;;;;19.99;56.58;101556.59;5019397;28;20488;-62
2022/06/14 09:29:56;;;;;;;0.20;0.13;;;;;;;19.98;57.10;101565.97;5012682;28;20034;-59
2022/06/14 09:35:36;;;;;;;4.78;0.20;;;;;;;20.14;56.67;101560.81;5037905;28;20113;-60
2022/06/14 09:38:24;;;;;;;1.40;0.38;;;;;;;20.15;58.92;101565.91;5026546;28;20403;-62
2022/06/14 09:41:14;;;;;;;0.45;0.30;;;;;;;20.21;57.72;101556.13;5026438;28;20064;-62
2022/06/14 09:44:06;;;;;;;1.55;0.52;;;;;;;20.17;57.82;101551.84;5021046;28;20068;-62
2022/06/14 09:46:31;;;;;;;0.63;0.20;;;;;;;20.25;57.99;101569.78;5008515;28;20510;-63
2022/06/14 09:49:13;;;;;;;0.20;0.20;;;;;;;20.31;58.29;101562.72;5024899;28;20029;-59
2022/06/14 09:51:48;;;;;;;1.20;0.68;;;;;;;20.32;58.63;101559.63;5013878;28;20025;-62
2022/06/14 09:54:22;;;;;;;0.40;0.30;;;;;;;20.39;58.91;101565.03;5020453;28;20085;-62
2022/06/14 09:57:06;;;;;;;2.33;0.30;;;;;;;20.29;59.42;101570.56;5031604;28;20551;-62
2022/06/14 09:59:41;;;;;;;0.98;0.93;;;;;;;20.22;60.40;101567.88;5014125;28;20156;-61
2022/06/14 10:02:25;;;;;;;0.10;0.10;;;;;;;20.26;58.96;101571.38;5022415;28;20484;-62
2022/06/14 10:05:18;;;;;;;0.32;0.20;;;;;;;20.42;58.35;101569.72;5026070;28;20484;-61
2022/06/14 10:07:56;;;;;;;1.42;0.50;;;;;;;20.58;58.90;101563.75;5019224;28;20171;-62
2022/06/14 10:10:56;;;;;;;0.20;0.20;;;;;;;20.66;56.53;101566.06;5028460;28;20052;-62
2022/06/14 10:13:44;;;;;;;0.25;0.20;;;;;;;20.64;55.84;101559.41;5012939;28;20049;-61
2022/06/14 10:16:46;;;;;;;0.20;0.17;;;;;;;20.61;56.22;101566.47;5008869;28;20350;-63
2022/06/14 10:19:15;;;;;;;0.20;0.20;;;;;;;20.58;56.54;101566.50;5013378;28;20026;-61
2022/06/14 10:21:49;;;;;;;0.93;0.35;;;;;;;20.53;55.46;101569.66;5017895;28;20029;-62
2022/06/14 10:24:28;;;;;;;0.73;0.20;;;;;;;20.52;55.31;101570.81;5023437;28;20076;-61
2022/06/14 10:29:57;;;;;;;0.13;0.13;;;;;;;20.41;55.06;101573.63;5027478;28;20030;-61
2022/06/14 10:32:50;;;;;;;0.85;0.10;;;;;;;20.38;54.12;101579.13;5034995;28;20040;-63
2022/06/14 10:35:28;;;;;;;0.63;0.20;;;;;;;20.35;54.40;101580.69;5025267;28;20025;-64
2022/06/14 10:38:12;;;;;;;0.20;0.15;;;;;;;20.32;56.80;101570.56;5019178;28;20470;-59
2022/06/14 10:40:56;;;;;;;0.80;0.28;;;;;;;20.42;56.70;101577.16;5019537;28;20040;-59
2022/06/14 10:43:44;;;;;;;0.38;0.20;;;;;;;20.57;55.20;101578.63;5025008;28;20319;-60
2022/06/14 10:46:24;;;;;;;0.75;0.30;;;;;;;20.62;55.09;101570.78;5024638;28;20492;-60
2022/06/14 10:49:03;;;;;;;0.65;0.30;;;;;;;20.72;55.42;101569.16;5016046;28;20029;-61
2022/06/14 10:51:43;;;;;;;0.68;0.30;;;;;;;20.85;56.12;101572.97;5016391;28;20080;-62
2022/06/14 10:54:43;;;;;;;1.55;0.20;;;;;;;20.88;55.55;101569.44;5016660;28;20095;-62
2022/06/14 10:57:17;;;;;;;2.35;0.38;;;;;;;20.84;55.45;101568.69;5017759;28;20343;-61
2022/06/14 11:00:08;;;;;;;0.28;0.13;;;;;;;20.88;55.24;101568.66;5013706;28;20037;-62
2022/06/14 11:02:43;;;;;;;0.50;0.20;;;;;;;20.79;56.58;101576.56;5014502;28;20038;-61
2022/06/14 11:05:18;;;;;;;1.27;0.35;;;;;;;20.77;56.98;101571.47;5014377;28;20052;-61
2022/06/14 11:07:49;;;;;;;0.47;0.10;;;;;;;20.84;55.92;101576.13;5018521;28;20053;-60
2022/06/14 11:10:30;;;;;;;;;;;;;;;20.85;55.70;101570.22;5020864;28;20037;-61
2022/06/14 11:13:20;;;;;;;0.50;0.40;;;;;;;21.00;56.31;101571.69;5006411;28;19913;-61
2022/06/14 11:16:01;;;;;;;0.10;0.10;;;;;;;21.10;56.13;101576.34;5021451;28;20485;-62
2022/06/14 11:19:00;;;;;;;0.20;0.10;;;;;;;21.13;54.79;101553.63;5019092;28;20261;-61
2022/06/14 11:21:26;;;;;;;0.20;0.13;;;;;;;21.19;54.32;101575.88;5021457;28;20068;-61
2022/06/14 11:24:01;;;;;;;1.13;0.30;;;;;;;21.12;54.07;101554.78;5019173;28;20052;-59
2022/06/14 11:26:35;;;;;;;0.40;0.22;;;;;;;21.26;53.14;101562.13;5016454;28;20037;-60
2022/06/14 11:29:15;;;;;;;0.28;0.20;;;;;;;21.29;52.72;101569.53;5021996;28;20037;-60
2022/06/14 11:31:57;;;;;;;1.90;0.60;;;;;;;21.19;53.54;101562.97;5016377;28;20038;-62
2022/06/14 11:34:28;;;;;;;2.25;0.85;;;;;;;21.29;53.09;101556.59;5034248;28;20029;-62
2022/06/14 11:37:13;;;;;;;1.55;0.50;;;;;;;21.32;54.47;101553.06;5026004;28;20041;-60
2022/06/14 11:39:38;;;;;;;0.10;0.10;;;;;;;21.46;54.79;101555.69;5018121;28;20034;-61
2022/06/14 11:42:12;;;;;;;0.95;0.10;;;;;;;21.64;55.73;101554.72;5016908;28;20037;-64
2022/06/14 11:44:49;;;;;;;0.10;0.00;;;;;;;21.74;55.31;101562.06;5019353;28;20029;-62
2022/06/14 11:47:33;;;;;;;0.15;0.10;;;;;;;21.84;53.86;101558.41;5022767;28;20119;-63
2022/06/14 11:50:21;;;;;;;0.57;0.30;;;;;;;21.96;53.30;101557.91;5006316;28;20033;-65
2022/06/14 11:53:16;;;;;;;0.10;0.10;;;;;;;21.99;52.74;101565.31;5028288;28;20033;-65
2022/06/14 11:55:48;;;;;;;1.83;0.22;;;;;;;22.08;51.89;101562.84;4979909;28;20054;-64
2022/06/14 11:58:17;;;;;;;0.38;0.10;;;;;;;22.14;51.99;101561.22;5017643;28;20480;-63
2022/06/14 12:01:07;;;;;;;2.05;0.17;;;;;;;22.08;50.76;101568.34;5012809;28;20072;-63
2022/06/14 12:04:07;;;;;;;0.20;0.20;;;;;;;22.04;51.12;101564.88;5007542;28;20022;-63
2022/06/14 12:06:33;;;;;;;1.55;0.10;;;;;;;22.05;50.93;101563.66;5005591;28;20632;-63
2022/06/14 12:09:28;;;;;;;0.73;0.30;;;;;;;22.02;52.44;101564.50;5001918;28;20041;-63
2022/06/14 12:12:05;;;;;;;0.52;0.20;;;;;;;22.12;52.21;101549.88;5010243;28;20489;-63
2022/06/14 12:15:07;;;;;;;0.60;0.40;;;;;;;22.30;50.74;101564.13;5022001;28;20029;-62
2022/06/14 12:17:41;;;;;;;0.10;0.10;;;;;;;22.49;50.78;101555.25;5012602;28;20038;-63
2022/06/14 12:20:10;;;;;;;0.30;0.17;;;;;;;22.47;51.17;101551.38;5027243;28;20045;-63
2022/06/14 12:22:45;;;;;;;2.05;0.20;;;;;;;22.43;50.42;101552.19;5022678;28;20033;-63
2022/06/14 12:28:37;;;;;;;0.25;0.15;;;;;;;22.22;53.03;101546.97;5019736;28;20693;-62
2022/06/14 12:31:15;;;;;;;1.38;0.17;;;;;;;22.17;52.94;101550.19;4994323;28;20044;-63
2022/06/14 12:33:46;;;;;;;0.30;0.20;;;;;;;22.20;52.27;101543.09;5015712;28;20037;-62
2022/06/14 12:36:21;;;;;;;2.67;0.40;;;;;;;22.27;50.67;101543.00;5020509;28;20061;-63